Huizhou, China
Current Conditions -  °F | °C
As of 10:00 AM on Tuesday 21 Oct 2014 (Local Time) from ZGSZ Reporting Station
Haze Haze  
Wind Chill: 82°   Ceiling: Unl
Heat Index: 88°   Visibility: 2mi
Dew Point: 73°   Wind: 7mph
Humidity: 74%   Direction: 280°W
Pressure: 30.03"   Gusts: NA
Location:  23.08°N, 114.4°E
Report Text: ZGSZ 210200Z 28003MPS 3200 HZ NSC 28/23 Q1017 NOSIG
Loading
Personal Weather Stations






























Interactive Weather Map
Tropical Storm Tracking
New forecast layout! Learn more

10-Day Weather Forecast

Advertisements
Track Severe Weather on mobile